Time;durP1;ratioP1;P1;durP2;ratioP2;P2;SDS_P1;SDS_P2;PMS_P1;PMS_P2;Temp;Humidity;BMP_temperature;BMP_pressure;BME280_temperature;BME280_humidity;BME280_pressure;Samples;Min_cycle;Max_cycle;Signal;HPM_P1;HPM_P2
2021/06/05 00:00:09;;;;;;;;;;;;;;;;;;5042157;28;20061;-55
2021/06/05 00:02:35;;;;;;;8.50;5.22;;;;;;;;;;5047032;28;19925;-54
2021/06/05 00:05:01;;;;;;;20.25;5.47;;;;;;;;;;5047263;28;20047;-55
2021/06/05 00:07:27;;;;;;;;;;;;;;;;;;5047782;28;20041;-55
2021/06/05 00:09:53;;;;;;;8.57;4.88;;;;;;;;;;5049549;28;19970;-53
2021/06/05 00:12:22;;;;;;;7.82;5.95;;;;;;;;;;5050497;28;20747;-53
2021/06/05 00:14:48;;;;;;;18.60;5.82;;;;;;;;;;5059990;28;20484;-51
2021/06/05 00:17:13;;;;;;;;;;;;;;;;;;5071148;28;20041;-52
2021/06/05 00:19:39;;;;;;;10.07;5.38;;;;;;;;;;5071273;28;19916;-50
2021/06/05 00:22:05;;;;;;;;;;;;;;;;;;5071387;28;20091;-54
2021/06/05 00:24:32;;;;;;;13.18;6.00;;;;;;;;;;5055328;28;20288;-54
2021/06/05 00:26:58;;;;;;;10.85;6.18;;;;;;;;;;5044851;28;20041;-53
2021/06/05 00:29:23;;;;;;;;;;;;;;;;;;5063231;28;20044;-55
2021/06/05 00:31:50;;;;;;;13.40;5.20;;;;;;;;;;5056748;28;19956;-48
2021/06/05 00:34:16;;;;;;;14.35;5.00;;;;;;;;;;5051279;28;20071;-51
2021/06/05 00:36:42;;;;;;;11.00;5.15;;;;;;;;;;5051081;28;20048;-50
2021/06/05 00:39:09;;;;;;;7.03;4.85;;;;;;;;;;5050632;28;20073;-55
2021/06/05 00:41:35;;;;;;;7.22;5.20;;;;;;;;;;5050292;28;20574;-54
2021/06/05 00:44:04;;;;;;;31.13;5.40;;;;;;;;;;5055581;28;20090;-55
2021/06/05 00:46:30;;;;;;;7.43;5.25;;;;;;;;;;5064801;28;20496;-52
2021/06/05 00:48:57;;;;;;;9.25;5.25;;;;;;;;;;5070569;28;20093;-51
2021/06/05 00:51:25;;;;;;;99.72;7.95;;;;;;;;;;5070684;28;20044;-51
2021/06/05 00:53:51;;;;;;;69.28;7.88;;;;;;;;;;5070908;28;20155;-49
2021/06/05 00:56:17;;;;;;;;;;;;;;;;;;5071324;28;20182;-49
2021/06/05 00:58:43;;;;;;;14.18;5.50;;;;;;;;;;5051855;28;19932;-48
2021/06/05 01:01:14;;;;;;;15.32;6.47;;;;;;;;;;5045988;28;20038;-52
2021/06/05 01:03:41;;;;;;;13.50;5.60;;;;;;;;;;5038878;28;20037;-56
2021/06/05 01:06:06;;;;;;;;;;;;;;;;;;5061425;28;20099;-50
2021/06/05 01:08:36;;;;;;;24.40;5.22;;;;;;;;;;5070331;28;20459;-51
2021/06/05 01:11:10;;;;;;;9.75;5.25;;;;;;;;;;5069387;28;20173;-53
2021/06/05 01:13:47;;;;;;;9.32;4.57;;;;;;;;;;5043618;28;20037;-51
2021/06/05 01:16:16;;;;;;;14.98;5.43;;;;;;;;;;5062522;28;20041;-51
2021/06/05 01:18:57;;;;;;;8.75;5.80;;;;;;;;;;5070151;28;20037;-51
2021/06/05 01:22:02;;;;;;;18.52;5.45;;;;;;;;;;5068638;28;20067;-49
2021/06/05 01:24:33;;;;;;;10.80;5.20;;;;;;;;;;4960182;28;20507;-55
2021/06/05 01:27:02;;;;;;;8.50;4.88;;;;;;;;;;4949109;29;20043;-51
2021/06/05 01:29:39;;;;;;;11.32;4.88;;;;;;;;;;4992138;28;20062;-49
2021/06/05 01:32:07;;;;;;;7.85;4.70;;;;;;;;;;5030114;28;20068;-49
2021/06/05 01:34:38;;;;;;;19.30;5.50;;;;;;;;;;5049129;28;20045;-53
2021/06/05 01:37:04;;;;;;;56.40;6.43;;;;;;;;;;5050033;28;20080;-52
2021/06/05 01:39:31;;;;;;;25.13;4.68;;;;;;;;;;5049454;28;20041;-51
2021/06/05 01:41:58;;;;;;;6.05;4.85;;;;;;;;;;5049621;28;20067;-54
2021/06/05 01:44:25;;;;;;;5.95;4.43;;;;;;;;;;5053505;28;20449;-54
2021/06/05 01:46:52;;;;;;;212.52;10.70;;;;;;;;;;5066924;28;20107;-51
2021/06/05 01:49:19;;;;;;;39.22;5.55;;;;;;;;;;5070023;28;20049;-55
2021/06/05 01:51:47;;;;;;;84.20;6.68;;;;;;;;;;5068893;28;20040;-51
2021/06/05 01:54:16;;;;;;;106.38;7.60;;;;;;;;;;5069368;28;20144;-50
2021/06/05 01:56:53;;;;;;;54.88;5.20;;;;;;;;;;5068415;28;20040;-55
2021/06/05 01:59:20;;;;;;;21.08;4.97;;;;;;;;;;5048002;28;20519;-50
2021/06/05 02:01:46;;;;;;;93.20;7.10;;;;;;;;;;5013996;28;20106;-50
2021/06/05 02:04:12;;;;;;;22.70;5.57;;;;;;;;;;5049311;28;20111;-53
2021/06/05 02:06:39;;;;;;;9.02;4.38;;;;;;;;;;5046504;28;20072;-50
2021/06/05 02:09:07;;;;;;;5.85;4.53;;;;;;;;;;5048757;28;20041;-52
2021/06/05 02:11:37;;;;;;;7.18;4.93;;;;;;;;;;5049457;28;20052;-48
2021/06/05 02:14:06;;;;;;;8.65;4.75;;;;;;;;;;5053479;28;20120;-54
2021/06/05 02:16:37;;;;;;;8.45;4.63;;;;;;;;;;5045360;28;20047;-50
2021/06/05 02:19:15;;;;;;;14.73;4.85;;;;;;;;;;5069226;28;20048;-54
2021/06/05 02:21:43;;;;;;;26.98;5.57;;;;;;;;;;5069054;28;20072;-54
2021/06/05 02:24:13;;;;;;;45.53;6.22;;;;;;;;;;5068195;28;20583;-55
2021/06/05 02:26:40;;;;;;;7.88;4.97;;;;;;;;;;5069449;28;20037;-57
2021/06/05 02:29:06;;;;;;;6.13;4.97;;;;;;;;;;5051226;28;20048;-54
2021/06/05 02:31:32;;;;;;;10.75;5.72;;;;;;;;;;5068092;28;20039;-55
2021/06/05 02:33:58;;;;;;;;;;;;;;;;;;5053050;28;20411;-50
2021/06/05 02:36:24;;;;;;;21.38;5.22;;;;;;;;;;5048929;28;19960;-53
2021/06/05 02:38:50;;;;;;;;;;;;;;;;;;5049050;28;20032;-52
2021/06/05 02:41:18;;;;;;;6.28;5.05;;;;;;;;;;5048120;28;19920;-58
2021/06/05 02:43:45;;;;;;;8.60;4.88;;;;;;;;;;5057140;28;20503;-55
2021/06/05 02:46:17;;;;;;;5.90;5.05;;;;;;;;;;5036486;28;20033;-52
2021/06/05 02:48:55;;;;;;;6.47;3.97;;;;;;;;;;5043419;28;20056;-52
2021/06/05 02:51:24;;;;;;;7.47;4.55;;;;;;;;;;5044783;28;20156;-53
2021/06/05 02:53:51;;;;;;;7.05;4.95;;;;;;;;;;5046821;28;20125;-56
2021/06/05 02:56:17;;;;;;;7.07;3.92;;;;;;;;;;5048195;28;20040;-51
2021/06/05 02:58:43;;;;;;;5.30;4.63;;;;;;;;;;5046912;28;20045;-53
2021/06/05 03:01:09;;;;;;;;;;;;;;;;;;5028347;28;20063;-54
2021/06/05 03:03:36;;;;;;;10.30;4.20;;;;;;;;;;5045941;28;20369;-54
2021/06/05 03:06:03;;;;;;;11.77;5.05;;;;;;;;;;5047745;28;20067;-50
2021/06/05 03:08:32;;;;;;;8.48;4.30;;;;;;;;;;5048393;28;20055;-51
2021/06/05 03:10:58;;;;;;;5.53;4.57;;;;;;;;;;5030833;28;20048;-52
2021/06/05 03:13:24;;;;;;;6.63;4.72;;;;;;;;;;5035734;28;20060;-57
2021/06/05 03:15:51;;;;;;;5.93;4.88;;;;;;;;;;5058914;28;20043;-57
2021/06/05 03:18:18;;;;;;;7.47;4.95;;;;;;;;;;5052772;28;20497;-56
2021/06/05 03:20:45;;;;;;;6.15;4.88;;;;;;;;;;5047939;28;20045;-55
2021/06/05 03:23:12;;;;;;;6.55;4.97;;;;;;;;;;5047547;28;20044;-57
2021/06/05 03:25:38;;;;;;;4.93;4.25;;;;;;;;;;5047314;28;20043;-53
2021/06/05 03:28:04;;;;;;;;;;;;;;;;;;5050429;28;20090;-54
2021/06/05 03:30:30;;;;;;;6.97;4.53;;;;;;;;;;5046285;28;19928;-53
2021/06/05 03:32:56;;;;;;;;;;;;;;;;;;5029322;22;20045;-52
2021/06/05 03:35:22;;;;;;;4.95;4.35;;;;;;;;;;5085310;28;20381;-54
2021/06/05 03:37:49;;;;;;;12.98;4.93;;;;;;;;;;5088587;28;20044;-52
2021/06/05 03:40:16;;;;;;;13.60;4.78;;;;;;;;;;5087952;28;20467;-55
2021/06/05 03:42:42;;;;;;;6.00;5.38;;;;;;;;;;5088050;28;20044;-53
2021/06/05 03:45:08;;;;;;;;;;;;;;;;;;5091945;28;20529;-53
2021/06/05 03:47:34;;;;;;;6.90;4.82;;;;;;;;;;5092106;28;19916;-51
2021/06/05 03:50:00;;;;;;;8.80;4.55;;;;;;;;;;5092437;28;20044;-56
2021/06/05 03:52:26;;;;;;;;;;;;;;;;;;5092001;28;20055;-54
2021/06/05 03:54:53;;;;;;;8.73;4.68;;;;;;;;;;5091757;28;20779;-51
2021/06/05 03:57:21;;;;;;;8.25;4.93;;;;;;;;;;5099006;28;20036;-53
2021/06/05 03:59:47;;;;;;;7.22;5.32;;;;;;;;;;5110254;28;20039;-51
2021/06/05 04:02:14;;;;;;;6.75;5.30;;;;;;;;;;5105148;28;20055;-55
2021/06/05 04:04:41;;;;;;;5.53;4.85;;;;;;;;;;5091574;28;20036;-54
2021/06/05 04:07:10;;;;;;;7.35;5.53;;;;;;;;;;5090802;28;20158;-54
2021/06/05 04:09:40;;;;;;;5.53;4.95;;;;;;;;;;5089888;28;20047;-56
2021/06/05 04:12:07;;;;;;;7.75;5.25;;;;;;;;;;5091561;28;20051;-55
2021/06/05 04:14:33;;;;;;;6.50;5.15;;;;;;;;;;5091676;28;20036;-49
2021/06/05 04:16:59;;;;;;;7.43;5.25;;;;;;;;;;5090789;28;20058;-53
2021/06/05 04:19:25;;;;;;;;;;;;;;;;;;5091640;28;20126;-57
2021/06/05 04:21:51;;;;;;;7.93;5.05;;;;;;;;;;5091421;28;19922;-48
2021/06/05 04:24:18;;;;;;;11.20;5.55;;;;;;;;;;5092013;28;20036;-52
2021/06/05 04:26:44;;;;;;;6.50;5.05;;;;;;;;;;5091957;28;20483;-50
2021/06/05 04:29:09;;;;;;;;;;;;;;;;;;5091530;28;20047;-50
2021/06/05 04:31:35;;;;;;;20.85;6.32;;;;;;;;;;5091080;28;20015;-54
2021/06/05 04:34:01;;;;;;;;;;;;;;;;;;5091634;28;20036;-54
2021/06/05 04:36:27;;;;;;;7.93;5.95;;;;;;;;;;5091725;28;19959;-55
2021/06/05 04:38:53;;;;;;;;;;;;;;;;;;5091504;28;20412;-53
2021/06/05 04:41:20;;;;;;;6.75;4.97;;;;;;;;;;5091248;28;19916;-49
2021/06/05 04:43:46;;;;;;;13.30;5.63;;;;;;;;;;5091377;28;20119;-51
2021/06/05 04:46:13;;;;;;;14.18;5.82;;;;;;;;;;5090300;28;20052;-56
2021/06/05 04:48:40;;;;;;;9.75;5.97;;;;;;;;;;5090597;28;20044;-54
2021/06/05 04:51:06;;;;;;;7.00;5.55;;;;;;;;;;5090327;28;20113;-58
2021/06/05 04:53:32;;;;;;;;;;;;;;;;;;5090533;28;20035;-58
2021/06/05 04:55:58;;;;;;;5.72;4.13;;;;;;;;;;5090953;28;19920;-56
2021/06/05 04:58:25;;;;;;;6.38;4.72;;;;;;;;;;5093591;28;20100;-53
2021/06/05 05:00:52;;;;;;;4.53;3.92;;;;;;;;;;5090561;28;20040;-57
2021/06/05 05:03:20;;;;;;;6.18;4.10;;;;;;;;;;5091613;28;20503;-60
2021/06/05 05:05:46;;;;;;;6.13;4.55;;;;;;;;;;5090194;28;20059;-60
2021/06/05 05:08:13;;;;;;;7.93;5.18;;;;;;;;;;5091418;28;20047;-58
2021/06/05 05:10:43;;;;;;;12.18;6.80;;;;;;;;;;5090421;28;20515;-60
2021/06/05 05:13:09;;;;;;;8.52;6.07;;;;;;;;;;5098248;28;20691;-59
2021/06/05 05:15:35;;;;;;;6.82;5.22;;;;;;;;;;5095005;28;20043;-59
2021/06/05 05:18:01;;;;;;;;;;;;;;;;;;5086551;28;20048;-60
2021/06/05 05:20:32;;;;;;;13.80;6.13;;;;;;;;;;5091056;28;19916;-57
2021/06/05 05:22:58;;;;;;;5.60;4.78;;;;;;;;;;5090019;28;20043;-59
2021/06/05 05:25:25;;;;;;;7.65;5.28;;;;;;;;;;5090385;28;20040;-60
2021/06/05 05:27:51;;;;;;;8.30;5.07;;;;;;;;;;5091203;28;20040;-59
2021/06/05 05:30:19;;;;;;;9.15;4.38;;;;;;;;;;5089667;28;20486;-59
2021/06/05 05:32:45;;;;;;;16.67;5.53;;;;;;;;;;5090159;28;20408;-60
2021/06/05 05:35:12;;;;;;;16.17;5.88;;;;;;;;;;5090185;28;20122;-59
2021/06/05 05:37:38;;;;;;;9.45;4.95;;;;;;;;;;5091074;28;20484;-59
2021/06/05 05:40:05;;;;;;;10.88;4.75;;;;;;;;;;5090368;28;20054;-59
2021/06/05 05:42:31;;;;;;;17.35;5.88;;;;;;;;;;5072064;28;20052;-58
2021/06/05 05:44:57;;;;;;;;;;;;;;;;;;5090967;28;20556;-58
2021/06/05 05:47:23;;;;;;;13.57;4.22;;;;;;;;;;5071716;28;19919;-59
2021/06/05 05:49:49;;;;;;;12.85;5.78;;;;;;;;;;5089864;28;20044;-58
2021/06/05 05:52:15;;;;;;;10.63;5.18;;;;;;;;;;5089618;28;20048;-60
2021/06/05 05:54:41;;;;;;;;;;;;;;;;;;5090873;28;20040;-58
2021/06/05 05:57:07;;;;;;;7.15;4.65;;;;;;;;;;5090733;28;19920;-57
2021/06/05 05:59:33;;;;;;;13.63;5.43;;;;;;;;;;5089915;28;20051;-60
2021/06/05 06:01:59;;;;;;;;;;;;;;;;;;5093651;28;20027;-60
2021/06/05 06:04:25;;;;;;;6.65;4.68;;;;;;;;;;5110310;28;19919;-59
2021/06/05 06:06:51;;;;;;;;;;;;;;;;;;5094092;28;20036;-60
2021/06/05 06:09:17;;;;;;;10.18;4.05;;;;;;;;;;5089137;28;20149;-58
2021/06/05 06:11:46;;;;;;;10.52;4.18;;;;;;;;;;5089608;28;20043;-59
2021/06/05 06:14:13;;;;;;;7.75;4.00;;;;;;;;;;5089161;28;20598;-59
2021/06/05 06:16:39;;;;;;;8.80;4.15;;;;;;;;;;5089061;28;20054;-60
2021/06/05 06:19:05;;;;;;;;;;;;;;;;;;5090053;28;20545;-59
2021/06/05 06:21:32;;;;;;;4.22;3.35;;;;;;;;;;5089684;28;19920;-59
2021/06/05 06:23:58;;;;;;;9.88;3.97;;;;;;;;;;5089388;28;20050;-59
2021/06/05 06:26:26;;;;;;;8.43;4.93;;;;;;;;;;5089541;28;20038;-60
2021/06/05 06:28:53;;;;;;;6.15;4.10;;;;;;;;;;5070938;28;20048;-59
2021/06/05 06:31:20;;;;;;;8.07;4.10;;;;;;;;;;5089002;28;20039;-57
2021/06/05 06:33:46;;;;;;;7.63;4.10;;;;;;;;;;5089045;28;20208;-59
2021/06/05 06:36:12;;;;;;;6.80;5.18;;;;;;;;;;5087511;28;20042;-60
2021/06/05 06:38:40;;;;;;;5.32;4.40;;;;;;;;;;5087171;28;20641;-55
2021/06/05 06:41:08;;;;;;;8.55;4.38;;;;;;;;;;5087477;28;20665;-58
2021/06/05 06:43:34;;;;;;;8.05;4.50;;;;;;;;;;5087669;28;20120;-56
2021/06/05 06:46:03;;;;;;;6.38;3.55;;;;;;;;;;5087222;28;20040;-59
2021/06/05 06:48:30;;;;;;;7.80;4.22;;;;;;;;;;5088955;28;20044;-58
2021/06/05 06:50:57;;;;;;;6.35;3.80;;;;;;;;;;5088029;28;20127;-59
2021/06/05 06:53:23;;;;;;;7.90;3.83;;;;;;;;;;5088361;28;20032;-59
2021/06/05 06:55:49;;;;;;;;;;;;;;;;;;5089315;28;20036;-60
2021/06/05 06:58:15;;;;;;;4.85;3.22;;;;;;;;;;5090588;28;19945;-59
2021/06/05 07:00:43;;;;;;;10.80;3.15;;;;;;;;;;5082215;22;20051;-60
2021/06/05 07:03:09;;;;;;;4.70;3.25;;;;;;;;;;5056987;28;20123;-61
2021/06/05 07:05:36;;;;;;;5.15;2.80;;;;;;;;;;5048269;28;20041;-58
2021/06/05 07:08:10;;;;;;;5.80;3.13;;;;;;;;;;5049500;28;20159;-63
2021/06/05 07:10:37;;;;;;;5.97;2.92;;;;;;;;;;5053699;23;20052;-61
2021/06/05 07:13:03;;;;;;;2.35;2.10;;;;;;;;;;5063656;28;20049;-61
2021/06/05 07:15:29;;;;;;;12.02;3.72;;;;;;;;;;5057379;28;20569;-61
2021/06/05 07:17:55;;;;;;;23.80;3.63;;;;;;;;;;5068302;28;20083;-59
2021/06/05 07:20:21;;;;;;;6.65;2.47;;;;;;;;;;5068430;28;20595;-58
2021/06/05 07:22:47;;;;;;;4.40;2.55;;;;;;;;;;5068970;28;20079;-61
2021/06/05 07:25:14;;;;;;;5.22;2.45;;;;;;;;;;5068534;28;20076;-60
2021/06/05 07:27:40;;;;;;;3.60;2.30;;;;;;;;;;5068790;28;20040;-61
2021/06/05 07:30:07;;;;;;;3.40;1.98;;;;;;;;;;5068082;28;20040;-58
2021/06/05 07:32:33;;;;;;;5.10;1.92;;;;;;;;;;5068723;28;20736;-60
2021/06/05 07:34:59;;;;;;;2.40;1.60;;;;;;;;;;5068482;28;20044;-60
2021/06/05 07:37:25;;;;;;;7.57;2.10;;;;;;;;;;5084124;28;20400;-61
2021/06/05 07:39:51;;;;;;;4.40;1.90;;;;;;;;;;5067825;28;20111;-61
2021/06/05 07:42:17;;;;;;;6.07;1.92;;;;;;;;;;5068630;28;20040;-61
2021/06/05 07:44:43;;;;;;;14.55;2.22;;;;;;;;;;5068426;28;20481;-61
2021/06/05 07:47:09;;;;;;;10.30;1.70;;;;;;;;;;5046591;28;20033;-61
2021/06/05 07:49:37;;;;;;;7.10;1.00;;;;;;;;;;5048424;28;20045;-61
2021/06/05 07:52:05;;;;;;;9.10;1.52;;;;;;;;;;5048284;28;20129;-61
2021/06/05 07:54:31;;;;;;;3.13;1.13;;;;;;;;;;5062261;28;20042;-61
2021/06/05 07:56:58;;;;;;;6.53;1.40;;;;;;;;;;5068057;28;20131;-59
2021/06/05 07:59:25;;;;;;;2.30;1.38;;;;;;;;;;5068020;28;20127;-61
2021/06/05 08:01:51;;;;;;;5.18;1.50;;;;;;;;;;5068494;28;20094;-62
2021/06/05 08:04:17;;;;;;;4.38;1.40;;;;;;;;;;5064422;28;20041;-61
2021/06/05 08:06:44;;;;;;;4.18;1.10;;;;;;;;;;5052112;28;20037;-59
2021/06/05 08:09:10;;;;;;;11.18;1.75;;;;;;;;;;5048501;28;20106;-61
2021/06/05 08:11:36;;;;;;;5.03;1.73;;;;;;;;;;5048694;28;20047;-60
2021/06/05 08:14:02;;;;;;;6.38;1.80;;;;;;;;;;5062713;28;20047;-61
2021/06/05 08:16:28;;;;;;;3.83;1.73;;;;;;;;;;5067335;28;20040;-61
2021/06/05 08:18:54;;;;;;;1.95;1.77;;;;;;;;;;5068714;28;20041;-62
2021/06/05 08:21:21;;;;;;;19.65;11.95;;;;;;;;;;5068443;28;20547;-62
2021/06/05 08:23:47;;;;;;;7.82;2.88;;;;;;;;;;5067761;28;20052;-62
2021/06/05 08:26:16;;;;;;;3.35;1.88;;;;;;;;;;5067999;28;20044;-60
2021/06/05 08:28:42;;;;;;;4.35;1.48;;;;;;;;;;5067844;28;20043;-61
2021/06/05 08:31:10;;;;;;;6.50;3.45;;;;;;;;;;5069118;28;20044;-61
2021/06/05 08:33:37;;;;;;;5.72;2.10;;;;;;;;;;5070930;28;20032;-61
2021/06/05 08:36:04;;;;;;;5.38;1.83;;;;;;;;;;5071293;28;20079;-60
2021/06/05 08:38:31;;;;;;;4.28;1.90;;;;;;;;;;5072056;28;20071;-60
2021/06/05 08:41:13;;;;;;;17.17;2.28;;;;;;;;;;5070983;28;20527;-61
2021/06/05 08:43:51;;;;;;;6.07;2.25;;;;;;;;;;5071683;28;20481;-59
2021/06/05 08:46:25;;;;;;;12.48;5.85;;;;;;;;;;5061612;28;20131;-61
2021/06/05 08:48:52;;;;;;;10.57;4.80;;;;;;;;;;5059255;28;20519;-60
2021/06/05 08:51:21;;;;;;;4.15;2.42;;;;;;;;;;5070684;28;20037;-58
2021/06/05 08:53:47;;;;;;;7.45;2.17;;;;;;;;;;5070609;28;20142;-60
2021/06/05 08:56:16;;;;;;;5.68;2.35;;;;;;;;;;5070617;28;20718;-59
2021/06/05 08:58:48;;;;;;;9.00;3.13;;;;;;;;;;5070429;28;20044;-62
2021/06/05 09:01:26;;;;;;;8.18;2.83;;;;;;;;;;5066763;28;20520;-60
2021/06/05 09:04:04;;;;;;;12.32;3.55;;;;;;;;;;5068102;28;20119;-61
2021/06/05 09:06:35;;;;;;;6.25;3.15;;;;;;;;;;5070835;28;20045;-60
2021/06/05 09:09:03;;;;;;;13.68;7.35;;;;;;;;;;5070590;28;20471;-61
2021/06/05 09:11:29;;;;;;;7.60;4.03;;;;;;;;;;5070424;28;20079;-62
2021/06/05 09:13:55;;;;;;;6.65;3.22;;;;;;;;;;5070504;28;20040;-61
2021/06/05 09:16:23;;;;;;;7.35;3.92;;;;;;;;;;5068850;28;20083;-60
2021/06/05 09:18:49;;;;;;;6.25;3.28;;;;;;;;;;5070171;28;20055;-61
2021/06/05 09:21:25;;;;;;;7.90;6.05;;;;;;;;;;5068761;28;20052;-61
2021/06/05 09:23:51;;;;;;;16.00;7.63;;;;;;;;;;5070843;28;20648;-61
2021/06/05 09:26:28;;;;;;;16.17;4.40;;;;;;;;;;5070021;28;20040;-61
2021/06/05 09:29:14;;;;;;;5.68;3.10;;;;;;;;;;5070187;28;20112;-61
2021/06/05 09:31:58;;;;;;;9.30;3.63;;;;;;;;;;5069919;28;20094;-61
2021/06/05 09:34:25;;;;;;;6.80;5.30;;;;;;;;;;5069814;28;20151;-61
2021/06/05 09:36:51;;;;;;;13.18;5.22;;;;;;;;;;5070749;28;20041;-61
2021/06/05 09:39:35;;;;;;;13.30;4.95;;;;;;;;;;5070082;28;20033;-62
2021/06/05 09:42:01;;;;;;;11.77;6.45;;;;;;;;;;5069760;28;20539;-60
2021/06/05 09:44:29;;;;;;;16.75;6.20;;;;;;;;;;5069539;28;20047;-59
2021/06/05 09:47:00;;;;;;;10.80;6.22;;;;;;;;;;5069563;28;20127;-60
2021/06/05 09:49:31;;;;;;;18.40;5.90;;;;;;;;;;5070552;28;20129;-58
2021/06/05 09:52:06;;;;;;;8.07;5.22;;;;;;;;;;5069030;28;20048;-57
2021/06/05 09:54:34;;;;;;;9.70;7.40;;;;;;;;;;5069060;28;20044;-57
2021/06/05 09:57:15;;;;;;;9.13;7.95;;;;;;;;;;5069745;28;20053;-60
2021/06/05 09:59:41;;;;;;;12.85;9.30;;;;;;;;;;5060070;28;20110;-60
2021/06/05 10:02:13;;;;;;;11.38;8.25;;;;;;;;;;5068565;28;20068;-61
2021/06/05 10:04:40;;;;;;;8.68;7.57;;;;;;;;;;5069444;28;20525;-59
2021/06/05 10:07:23;;;;;;;17.27;7.30;;;;;;;;;;5068990;28;20049;-60
2021/06/05 10:09:49;;;;;;;12.50;9.15;;;;;;;;;;5070207;28;20091;-57
2021/06/05 10:12:25;;;;;;;13.75;9.60;;;;;;;;;;5068947;28;20064;-59
2021/06/05 10:14:55;;;;;;;23.15;10.07;;;;;;;;;;5058647;28;20068;-59
2021/06/05 10:17:30;;;;;;;16.60;13.73;;;;;;;;;;5068893;28;20037;-58
2021/06/05 10:20:02;;;;;;;18.63;13.38;;;;;;;;;;5069351;28;20040;-58
2021/06/05 10:22:28;;;;;;;18.85;12.02;;;;;;;;;;5069193;28;20039;-59
2021/06/05 10:24:58;;;;;;;20.98;13.90;;;;;;;;;;5068735;28;20040;-58
2021/06/05 10:27:44;;;;;;;16.05;13.30;;;;;;;;;;5068718;28;20404;-57
2021/06/05 10:30:29;;;;;;;19.38;12.55;;;;;;;;;;5068924;28;20045;-57
2021/06/05 10:32:57;;;;;;;22.95;14.65;;;;;;;;;;5069204;28;20139;-54
2021/06/05 10:35:29;;;;;;;20.55;14.48;;;;;;;;;;5069153;28;20040;-55
2021/06/05 10:38:14;;;;;;;26.83;14.60;;;;;;;;;;5068468;28;20637;-53
2021/06/05 10:40:40;;;;;;;24.48;17.15;;;;;;;;;;5068890;28;20040;-57
2021/06/05 10:43:06;;;;;;;;;;;;;;;;;;5069776;28;20036;-54
2021/06/05 10:45:37;;;;;;;21.90;15.15;;;;;;;;;;5067874;28;19999;-56
2021/06/05 10:48:21;;;;;;;23.05;18.30;;;;;;;;;;5069776;28;20120;-58
2021/06/05 10:50:52;;;;;;;28.38;15.65;;;;;;;;;;5069065;28;20479;-56
2021/06/05 10:53:21;;;;;;;27.80;18.63;;;;;;;;;;5067381;28;20054;-57
2021/06/05 10:55:55;;;;;;;27.02;15.88;;;;;;;;;;5068417;28;20182;-57
2021/06/05 10:58:24;;;;;;;20.35;15.90;;;;;;;;;;5069258;28;20123;-59
2021/06/05 11:00:51;;;;;;;28.83;14.70;;;;;;;;;;5067967;28;20440;-58
2021/06/05 11:03:23;;;;;;;22.08;15.38;;;;;;;;;;5068820;28;20118;-58
2021/06/05 11:06:04;;;;;;;23.80;15.50;;;;;;;;;;5068832;28;20050;-58
2021/06/05 11:08:36;;;;;;;19.63;13.63;;;;;;;;;;5069328;28;20492;-59
2021/06/05 11:11:02;;;;;;;18.90;13.43;;;;;;;;;;5067663;28;20048;-55
2021/06/05 11:16:02;;;;;;;25.48;17.15;;;;;;;;;;5061556;28;20037;-55
2021/06/05 11:18:38;;;;;;;20.23;13.82;;;;;;;;;;5068293;28;20174;-59
2021/06/05 11:21:22;;;;;;;23.85;16.83;;;;;;;;;;5069119;28;20841;-58
2021/06/05 11:23:57;;;;;;;26.15;18.17;;;;;;;;;;5068688;28;20048;-57
2021/06/05 11:26:38;;;;;;;19.33;13.45;;;;;;;;;;5067718;28;20541;-55
2021/06/05 11:29:22;;;;;;;25.23;15.15;;;;;;;;;;5069079;28;20041;-58
2021/06/05 11:31:48;;;;;;;24.45;16.45;;;;;;;;;;5068452;28;20060;-58
2021/06/05 11:34:29;;;;;;;24.77;15.80;;;;;;;;;;5067810;28;20056;-58
2021/06/05 11:37:06;;;;;;;28.40;18.45;;;;;;;;;;5069122;28;20472;-54
2021/06/05 11:39:32;;;;;;;31.88;21.65;;;;;;;;;;5068062;28;20127;-56
2021/06/05 11:41:59;;;;;;;28.30;18.63;;;;;;;;;;5068578;28;20116;-57
2021/06/05 11:44:35;;;;;;;30.45;19.70;;;;;;;;;;5068712;28;20119;-56
2021/06/05 11:47:21;;;;;;;34.65;18.90;;;;;;;;;;5067687;28;20568;-58
2021/06/05 11:50:06;;;;;;;34.28;21.25;;;;;;;;;;5067831;28;20416;-58
2021/06/05 11:52:32;;;;;;;31.02;19.63;;;;;;;;;;5067326;28;20041;-56
2021/06/05 11:55:02;;;;;;;29.30;19.08;;;;;;;;;;5067799;28;20051;-58
2021/06/05 11:57:32;;;;;;;38.70;20.67;;;;;;;;;;5064937;28;20496;-59
2021/06/05 12:00:03;;;;;;;31.05;18.98;;;;;;;;;;5060518;28;20043;-59
2021/06/05 12:02:32;;;;;;;33.95;21.17;;;;;;;;;;5067948;28;20040;-59
2021/06/05 12:05:04;;;;;;;34.60;21.88;;;;;;;;;;5067947;28;20051;-59
2021/06/05 12:07:32;;;;;;;32.10;20.98;;;;;;;;;;5071463;28;20060;-58
2021/06/05 12:09:59;;;;;;;31.30;20.63;;;;;;;;;;5072223;28;20127;-55
2021/06/05 12:12:27;;;;;;;31.90;19.02;;;;;;;;;;5071490;28;20065;-56
2021/06/05 12:15:03;;;;;;;36.70;21.95;;;;;;;;;;5071101;28;20037;-59
2021/06/05 12:17:40;;;;;;;28.55;18.75;;;;;;;;;;5071549;28;20051;-53
2021/06/05 12:20:06;;;;;;;30.02;18.27;;;;;;;;;;5071376;28;20094;-56
2021/06/05 12:22:33;;;;;;;34.65;20.75;;;;;;;;;;5071737;28;20042;-57
2021/06/05 12:25:00;;;;;;;33.13;20.75;;;;;;;;;;5068874;23;20036;-74
2021/06/05 12:27:29;;;;;;;29.15;19.15;;;;;;;;;;5073612;28;20102;-76
2021/06/05 12:30:09;;;;;;;33.88;20.73;;;;;;;;;;5073306;28;20118;-77
2021/06/05 12:32:36;;;;;;;28.63;18.40;;;;;;;;;;5072286;28;20558;-75
2021/06/05 12:35:23;;;;;;;36.72;22.13;;;;;;;;;;5073108;28;20495;-74
2021/06/05 12:37:54;;;;;;;41.95;24.05;;;;;;;;;;5072759;28;20489;-76
2021/06/05 12:40:26;;;;;;;29.83;19.50;;;;;;;;;;5072236;28;20036;-74
2021/06/05 12:42:52;;;;;;;31.95;20.88;;;;;;;;;;5072774;28;20037;-76
2021/06/05 12:45:26;;;;;;;33.83;21.77;;;;;;;;;;5079768;28;20036;-76
2021/06/05 12:47:54;;;;;;;38.20;22.10;;;;;;;;;;5072295;28;20044;-76
2021/06/05 12:50:23;;;;;;;31.00;19.40;;;;;;;;;;5072530;28;20086;-76
2021/06/05 12:52:50;;;;;;;36.20;20.17;;;;;;;;;;5072768;28;20090;-76
2021/06/05 12:55:29;;;;;;;28.45;17.17;;;;;;;;;;5072042;28;20047;-76
2021/06/05 12:58:00;;;;;;;31.83;20.17;;;;;;;;;;5072551;28;20059;-75
2021/06/05 13:00:29;;;;;;;28.60;18.42;;;;;;;;;;5071988;28;20051;-75
2021/06/05 13:02:56;;;;;;;28.63;17.60;;;;;;;;;;5072735;28;20037;-77
2021/06/05 13:05:31;;;;;;;27.73;16.33;;;;;;;;;;5072015;28;20036;-74
2021/06/05 13:08:10;;;;;;;28.73;18.80;;;;;;;;;;5072259;28;20044;-74
2021/06/05 13:10:42;;;;;;;29.35;18.73;;;;;;;;;;5071583;28;20044;-72
2021/06/05 13:13:18;;;;;;;29.05;17.83;;;;;;;;;;5074729;28;20051;-72
2021/06/05 13:15:54;;;;;;;28.48;16.88;;;;;;;;;;5069356;28;20069;-73
2021/06/05 13:18:28;;;;;;;29.83;18.58;;;;;;;;;;5064266;28;20041;-73
2021/06/05 13:21:02;;;;;;;29.30;18.27;;;;;;;;;;5071438;28;20086;-73
2021/06/05 13:23:35;;;;;;;28.63;16.15;;;;;;;;;;5072189;28;20045;-71
2021/06/05 13:26:20;;;;;;;31.23;17.15;;;;;;;;;;5072934;28;20049;-73
2021/06/05 13:28:46;;;;;;;24.95;16.15;;;;;;;;;;5073238;28;20060;-72
2021/06/05 13:31:33;;;;;;;24.77;15.77;;;;;;;;;;5071602;28;20035;-73
2021/06/05 13:34:16;;;;;;;22.55;14.60;;;;;;;;;;5071780;28;20123;-72
2021/06/05 13:36:42;;;;;;;20.73;11.85;;;;;;;;;;5072846;28;20040;-72
2021/06/05 13:39:17;;;;;;;20.30;10.68;;;;;;;;;;5072577;28;20044;-77
2021/06/05 13:41:44;;;;;;;19.38;9.40;;;;;;;;;;5067606;28;20048;-76
2021/06/05 13:44:11;;;;;;;15.80;10.68;;;;;;;;;;5073262;28;20093;-77
2021/06/05 13:46:38;;;;;;;15.43;8.88;;;;;;;;;;5086210;28;20044;-76
2021/06/05 13:49:05;;;;;;;15.80;9.55;;;;;;;;;;5092020;28;20036;-76
2021/06/05 13:51:33;;;;;;;14.48;9.75;;;;;;;;;;5085954;28;20068;-76
2021/06/05 13:53:59;;;;;;;17.30;10.55;;;;;;;;;;5081490;28;20040;-76
2021/06/05 13:56:26;;;;;;;19.50;11.82;;;;;;;;;;5072031;28;20032;-76
2021/06/05 13:58:53;;;;;;;17.67;11.68;;;;;;;;;;5090750;28;20044;-74
2021/06/05 14:01:22;;;;;;;17.88;11.43;;;;;;;;;;5090870;28;20032;-74
2021/06/05 14:03:48;;;;;;;22.92;13.93;;;;;;;;;;5070077;28;20093;-76
2021/06/05 14:06:15;;;;;;;21.35;11.80;;;;;;;;;;5063102;28;20068;-75
2021/06/05 14:08:41;;;;;;;20.00;12.15;;;;;;;;;;5068830;28;20040;-75
2021/06/05 14:11:09;;;;;;;27.58;16.23;;;;;;;;;;5070535;28;20040;-76
2021/06/05 14:13:35;;;;;;;22.02;13.38;;;;;;;;;;5077764;28;20112;-76
2021/06/05 14:16:02;;;;;;;18.33;12.07;;;;;;;;;;5091639;28;20540;-74
2021/06/05 14:18:30;;;;;;;23.08;14.75;;;;;;;;;;5090905;28;20502;-75
2021/06/05 14:20:58;;;;;;;23.20;13.43;;;;;;;;;;5092612;28;20040;-75
2021/06/05 14:23:26;;;;;;;19.65;12.32;;;;;;;;;;5091208;28;20043;-74
2021/06/05 14:25:52;;;;;;;24.15;16.20;;;;;;;;;;5091515;28;20054;-73
2021/06/05 14:28:20;;;;;;;20.52;13.07;;;;;;;;;;5090196;28;20092;-76
2021/06/05 14:30:47;;;;;;;20.83;12.52;;;;;;;;;;5090540;28;20046;-74
2021/06/05 14:33:14;;;;;;;15.77;10.23;;;;;;;;;;5081159;28;20489;-73
2021/06/05 14:35:40;;;;;;;20.23;12.63;;;;;;;;;;5069806;28;20036;-75
2021/06/05 14:38:08;;;;;;;22.52;13.35;;;;;;;;;;5070758;28;20036;-75
2021/06/05 14:40:34;;;;;;;22.05;13.35;;;;;;;;;;5070387;28;20044;-76
2021/06/05 14:43:01;;;;;;;19.58;12.43;;;;;;;;;;5068897;28;20044;-75
2021/06/05 14:45:30;;;;;;;24.85;14.50;;;;;;;;;;5082218;28;20534;-75
2021/06/05 14:47:56;;;;;;;24.23;14.15;;;;;;;;;;5067744;28;20045;-74
2021/06/05 14:50:23;;;;;;;21.15;13.55;;;;;;;;;;5070116;28;20589;-74
2021/06/05 14:52:51;;;;;;;22.55;14.05;;;;;;;;;;5082346;28;20100;-77